createdAt,value
2017-07-03T00:00:30.794Z,0
2017-07-03T00:01:41.149Z,0
2017-07-03T00:02:51.354Z,0
2017-07-03T00:04:01.571Z,0
2017-07-03T00:05:11.802Z,0
2017-07-03T00:06:22.016Z,0
2017-07-03T00:07:32.286Z,0
2017-07-03T00:08:42.516Z,0
2017-07-03T00:09:52.324Z,0
2017-07-03T00:11:02.552Z,0
2017-07-03T00:12:12.781Z,0
2017-07-03T00:13:23.143Z,0
2017-07-03T00:14:32.776Z,0
2017-07-03T00:15:42.379Z,0
2017-07-03T00:16:52.293Z,0
2017-07-03T00:18:01.893Z,0
2017-07-03T00:19:11.941Z,0
2017-07-03T00:20:21.545Z,0
2017-07-03T00:21:31.456Z,0
2017-07-03T00:22:41.658Z,0
2017-07-03T00:23:51.570Z,0
2017-07-03T00:25:01.895Z,0
2017-07-03T00:26:11.806Z,0
2017-07-03T00:27:21.395Z,0
2017-07-03T00:28:31.298Z,0
2017-07-03T00:29:41.199Z,0
2017-07-03T00:30:51.462Z,0
2017-07-03T00:32:01.055Z,0
2017-07-03T00:33:11.277Z,0
2017-07-03T00:34:21.477Z,0
2017-07-03T00:35:31.379Z,0
2017-07-03T00:36:42.106Z,0
2017-07-03T00:37:52.021Z,0
2017-07-03T00:39:02.225Z,0
2017-07-03T00:40:11.823Z,0
2017-07-03T00:41:22.037Z,0
2017-07-03T00:42:32.245Z,0
2017-07-03T00:43:42.516Z,0
2017-07-03T00:44:52.722Z,0
2017-07-03T00:46:02.930Z,0
2017-07-03T00:47:13.135Z,0
2017-07-03T00:48:23.195Z,0
2017-07-03T00:49:33.405Z,0
2017-07-03T00:50:43.305Z,0
2017-07-03T00:51:52.919Z,0
2017-07-03T00:53:02.214Z,0
2017-07-03T00:54:12.427Z,0
2017-07-03T00:55:22.335Z,0
2017-07-03T00:56:32.536Z,0
2017-07-03T00:57:42.742Z,0
2017-07-03T00:58:52.326Z,0
2017-07-03T01:00:02.670Z,0
2017-07-03T01:01:12.268Z,0
2017-07-03T01:02:22.164Z,0
2017-07-03T01:03:32.070Z,0
2017-07-03T01:04:41.663Z,0
2017-07-03T01:05:52.028Z,0
2017-07-03T01:07:01.630Z,0
2017-07-03T01:08:11.836Z,0
2017-07-03T01:09:21.744Z,0
2017-07-03T01:10:31.644Z,0
2017-07-03T01:11:41.947Z,0
2017-07-03T01:12:51.850Z,0
2017-07-03T01:14:01.456Z,0
2017-07-03T01:15:11.354Z,0
2017-07-03T01:16:21.258Z,0
2017-07-03T01:17:31.512Z,0
2017-07-03T01:18:41.421Z,0
2017-07-03T01:19:51.321Z,0
2017-07-03T01:21:01.222Z,0
2017-07-03T01:22:11.124Z,0
2017-07-03T01:23:21.069Z,0
2017-07-03T01:24:31.275Z,0
2017-07-03T01:25:41.183Z,0
2017-07-03T01:26:51.082Z,0
2017-07-03T01:28:00.990Z,0
2017-07-03T01:29:10.586Z,0
2017-07-03T01:30:20.798Z,0
2017-07-03T01:31:30.717Z,0
2017-07-03T01:32:40.315Z,0
2017-07-03T01:33:50.524Z,0
2017-07-03T01:35:00.576Z,0
2017-07-03T01:36:09.869Z,0
2017-07-03T01:37:20.077Z,0
2017-07-03T01:38:29.988Z,0
2017-07-03T01:39:39.899Z,0
2017-07-03T01:40:49.599Z,0
2017-07-03T01:41:59.495Z,0
2017-07-03T01:43:09.391Z,0
2017-07-03T01:44:19.606Z,0
2017-07-03T01:45:28.590Z,0
2017-07-03T01:46:38.222Z,0
2017-07-03T01:47:48.435Z,0
2017-07-03T01:48:58.641Z,0
2017-07-03T01:50:08.852Z,0
2017-07-03T01:51:18.755Z,0
2017-07-03T01:52:28.714Z,0
2017-07-03T01:53:38.925Z,0
2017-07-03T01:54:49.143Z,0
2017-07-03T01:55:59.362Z,0
2017-07-03T01:57:08.960Z,0
2017-07-03T01:58:19.168Z,0
2017-07-03T01:59:29.388Z,0
2017-07-03T02:00:39.044Z,0
2017-07-03T02:01:49.254Z,0
2017-07-03T02:02:58.863Z,0
2017-07-03T02:04:08.764Z,0
2017-07-03T02:05:18.998Z,0
2017-07-03T02:06:28.898Z,0
2017-07-03T02:07:39.113Z,0
2017-07-03T02:08:49.325Z,0
2017-07-03T02:09:59.385Z,0
2017-07-03T02:11:09.274Z,0
2017-07-03T02:12:18.869Z,0
2017-07-03T02:13:29.072Z,0
2017-07-03T02:14:38.983Z,0
2017-07-03T02:15:49.180Z,0
2017-07-03T02:16:58.773Z,0
2017-07-03T02:18:08.696Z,0
2017-07-03T02:19:18.614Z,0
2017-07-03T02:20:28.838Z,0
2017-07-03T02:21:39.191Z,0
2017-07-03T02:22:49.109Z,0
2017-07-03T02:23:58.729Z,0
2017-07-03T02:25:08.331Z,0
2017-07-03T02:26:17.922Z,0
2017-07-03T02:27:27.971Z,0
2017-07-03T02:28:38.182Z,0
2017-07-03T02:29:48.393Z,0
2017-07-03T02:30:58.282Z,0
2017-07-03T02:32:08.483Z,0
2017-07-03T02:33:18.379Z,0
2017-07-03T02:34:28.583Z,0
2017-07-03T02:35:38.179Z,0
2017-07-03T02:36:48.089Z,0
2017-07-03T02:37:57.408Z,0
2017-07-03T02:39:06.993Z,0
2017-07-03T02:40:17.203Z,0
2017-07-03T02:41:27.103Z,0
2017-07-03T02:42:36.738Z,0
2017-07-03T02:43:46.943Z,0
2017-07-03T02:44:56.029Z,0
2017-07-03T02:46:05.927Z,0
2017-07-03T02:47:15.518Z,0
2017-07-03T02:48:25.420Z,0
2017-07-03T02:49:35.655Z,0
2017-07-03T02:50:46.010Z,0
2017-07-03T02:51:55.898Z,4
2017-07-03T02:53:06.101Z,4
2017-07-03T02:54:15.999Z,4
2017-07-03T02:55:25.935Z,0
2017-07-03T02:56:35.102Z,4
2017-07-03T02:57:45.330Z,4
2017-07-03T02:58:55.228Z,4
2017-07-03T03:00:05.129Z,4
2017-07-03T03:01:15.032Z,4
2017-07-03T03:02:24.774Z,4
2017-07-03T03:03:34.983Z,8
2017-07-03T03:04:44.577Z,8
2017-07-03T03:05:54.788Z,8
2017-07-03T03:07:04.988Z,12
2017-07-03T03:08:14.728Z,12
2017-07-03T03:09:24.948Z,8
2017-07-03T03:10:34.846Z,12
2017-07-03T03:11:44.767Z,12
2017-07-03T03:12:54.979Z,16
2017-07-03T03:14:04.943Z,16
2017-07-03T03:15:15.203Z,20
2017-07-03T03:16:25.408Z,24
2017-07-03T03:17:35.614Z,24
2017-07-03T03:18:45.820Z,28
2017-07-03T03:19:55.418Z,32
2017-07-03T03:21:05.021Z,32
2017-07-03T03:22:14.921Z,36
2017-07-03T03:23:24.819Z,40
2017-07-03T03:24:35.049Z,40
2017-07-03T03:25:44.792Z,48
2017-07-03T03:26:54.391Z,48
2017-07-03T03:28:04.595Z,52
2017-07-03T03:29:14.191Z,56
2017-07-03T03:30:23.784Z,60
2017-07-03T03:31:33.432Z,64
2017-07-03T03:32:43.329Z,72
2017-07-03T03:35:03.426Z,80
2017-07-03T03:36:13.021Z,84
2017-07-03T03:37:22.915Z,88
2017-07-03T03:38:32.887Z,92
2017-07-03T03:39:43.110Z,100
2017-07-03T03:40:52.703Z,108
2017-07-03T03:42:02.302Z,120
2017-07-03T03:43:12.549Z,132
2017-07-03T03:44:22.452Z,140
2017-07-03T03:45:32.046Z,144
2017-07-03T03:46:41.938Z,156
2017-07-03T03:47:52.143Z,160
2017-07-03T03:49:02.502Z,168
2017-07-03T03:50:12.714Z,176
2017-07-03T03:51:22.915Z,180
2017-07-03T03:52:32.502Z,184
2017-07-03T03:53:42.715Z,192
2017-07-03T03:54:52.724Z,200
2017-07-03T03:56:02.931Z,212
2017-07-03T03:57:12.883Z,220
2017-07-03T03:58:22.793Z,228
2017-07-03T03:59:33.030Z,236
2017-07-03T04:00:42.769Z,244
2017-07-03T04:01:52.675Z,252
2017-07-03T04:03:02.572Z,260
2017-07-03T04:04:12.465Z,264
2017-07-03T04:05:22.663Z,272
2017-07-03T04:06:32.977Z,280
2017-07-03T04:07:42.619Z,288
2017-07-03T04:08:52.551Z,300
2017-07-03T04:10:02.763Z,308
2017-07-03T04:11:12.979Z,312
2017-07-03T04:12:22.879Z,320
2017-07-03T04:13:33.079Z,332
2017-07-03T04:14:43.282Z,348
2017-07-03T04:15:53.485Z,364
2017-07-03T04:17:03.397Z,392
2017-07-03T04:18:12.997Z,420
2017-07-03T04:19:22.903Z,444
2017-07-03T04:20:33.193Z,464
2017-07-03T04:21:43.091Z,480
2017-07-03T04:22:52.688Z,496
2017-07-03T04:24:02.636Z,512
2017-07-03T04:25:12.852Z,520
2017-07-03T04:26:23.062Z,536
2017-07-03T04:27:32.974Z,548
2017-07-03T04:28:42.896Z,560
2017-07-03T04:29:52.552Z,584
2017-07-03T04:31:02.453Z,604
2017-07-03T04:32:12.653Z,620
2017-07-03T04:33:22.583Z,628
2017-07-03T04:34:32.485Z,640
2017-07-03T04:35:42.350Z,652
2017-07-03T04:36:51.948Z,660
2017-07-03T04:38:02.160Z,672
2017-07-03T04:39:12.059Z,684
2017-07-03T04:40:21.959Z,692
2017-07-03T04:41:32.174Z,704
2017-07-03T04:42:41.150Z,712
2017-07-03T04:43:51.055Z,724
2017-07-03T04:45:00.951Z,740
2017-07-03T04:46:10.851Z,748
2017-07-03T04:47:21.066Z,756
2017-07-03T04:48:30.973Z,768
2017-07-03T04:49:41.183Z,784
2017-07-03T04:50:51.084Z,804
2017-07-03T04:52:01.294Z,824
2017-07-03T04:53:11.550Z,828
2017-07-03T04:54:21.763Z,824
2017-07-03T04:55:31.690Z,820
2017-07-03T04:56:41.892Z,828
2017-07-03T04:57:51.801Z,832
2017-07-03T04:59:02.003Z,832
2017-07-03T05:00:12.208Z,832
2017-07-03T05:01:21.498Z,836
2017-07-03T05:02:31.699Z,832
2017-07-03T05:03:41.907Z,836
2017-07-03T05:04:51.559Z,844
2017-07-03T05:06:01.767Z,848
2017-07-03T05:07:11.971Z,856
2017-07-03T05:08:21.878Z,876
2017-07-03T05:09:31.251Z,892
2017-07-03T05:10:41.806Z,912
2017-07-03T05:11:52.014Z,932
2017-07-03T05:13:01.622Z,956
2017-07-03T05:14:11.607Z,992
2017-07-03T05:15:21.528Z,1040
2017-07-03T05:16:31.275Z,1092
2017-07-03T05:17:41.493Z,1148
2017-07-03T05:18:51.403Z,1220
2017-07-03T05:20:01.606Z,1312
2017-07-03T05:21:11.204Z,1396
2017-07-03T05:22:21.704Z,1480
2017-07-03T05:23:31.902Z,1664
2017-07-03T05:24:42.102Z,2100
2017-07-03T05:25:52.010Z,2572
2017-07-03T05:27:01.918Z,2672
2017-07-03T05:28:12.162Z,2676
2017-07-03T05:29:22.372Z,2692
2017-07-03T05:30:31.962Z,2724
2017-07-03T05:31:42.181Z,2768
2017-07-03T05:32:52.084Z,2784
2017-07-03T05:34:02.060Z,2808
2017-07-03T05:35:11.971Z,2840
2017-07-03T05:36:21.868Z,2852
2017-07-03T05:37:31.776Z,2884
2017-07-03T05:38:41.993Z,2916
2017-07-03T05:39:52.307Z,2940
2017-07-03T05:41:02.219Z,2964
2017-07-03T05:42:12.439Z,2992
2017-07-03T05:43:22.343Z,3020
2017-07-03T05:44:32.251Z,3052
2017-07-03T05:45:41.952Z,3128
2017-07-03T05:46:51.858Z,3192
2017-07-03T05:48:01.762Z,3376
2017-07-03T05:49:11.359Z,3676
2017-07-03T05:50:20.957Z,4348
2017-07-03T05:51:30.548Z,4064
2017-07-03T05:52:40.776Z,3756
2017-07-03T05:53:50.674Z,3936
2017-07-03T05:54:59.971Z,4256
2017-07-03T05:56:10.190Z,6892
2017-07-03T05:57:20.566Z,11048
2017-07-03T05:58:29.863Z,14624
2017-07-03T05:59:39.766Z,19104
2017-07-03T06:00:49.983Z,13912
2017-07-03T06:01:59.899Z,4924
2017-07-03T06:03:09.904Z,3524
2017-07-03T06:04:19.813Z,3392
2017-07-03T06:05:30.027Z,3372
2017-07-03T06:06:39.940Z,3388
2017-07-03T06:07:50.150Z,3404
2017-07-03T06:09:00.364Z,3432
2017-07-03T06:10:09.657Z,3484
2017-07-03T06:11:19.569Z,3512
2017-07-03T06:12:28.859Z,3572
2017-07-03T06:13:39.094Z,3616
2017-07-03T06:14:49.303Z,3660
2017-07-03T06:15:59.514Z,3736
2017-07-03T06:17:09.738Z,3772
2017-07-03T06:18:19.642Z,3868
2017-07-03T06:19:29.242Z,3892
2017-07-03T06:20:39.324Z,3788
2017-07-03T06:21:49.241Z,3744
2017-07-03T06:22:59.160Z,3620
2017-07-03T06:24:09.061Z,3812
2017-07-03T06:25:18.667Z,3932
2017-07-03T06:26:28.421Z,4056
2017-07-03T06:27:38.016Z,4168
2017-07-03T06:28:47.933Z,4272
2017-07-03T06:29:57.861Z,4364
2017-07-03T06:31:08.077Z,4436
2017-07-03T06:32:17.981Z,4536
2017-07-03T06:33:27.281Z,4628
2017-07-03T06:34:37.506Z,4728
2017-07-03T06:35:47.419Z,4748
2017-07-03T06:36:57.333Z,4792
2017-07-03T06:38:07.449Z,4784
2017-07-03T06:39:17.685Z,4812
2017-07-03T06:40:27.001Z,4952
2017-07-03T06:41:36.920Z,4892
2017-07-03T06:42:47.139Z,4876
2017-07-03T06:43:57.216Z,4944
2017-07-03T06:45:07.128Z,5216
2017-07-03T06:46:17.343Z,6048
2017-07-03T06:47:27.254Z,7252
2017-07-03T06:48:37.176Z,6532
2017-07-03T06:49:47.084Z,5988
2017-07-03T06:50:57.306Z,6856
2017-07-03T06:52:05.993Z,14560
2017-07-03T06:53:16.245Z,32160
2017-07-03T06:54:26.161Z,35104
2017-07-03T06:55:36.137Z,36800
2017-07-03T06:56:46.058Z,25536
2017-07-03T06:57:56.327Z,12004
2017-07-03T06:59:06.238Z,3428
2017-07-03T07:00:16.458Z,5552
2017-07-03T07:01:25.761Z,22656
2017-07-03T07:02:35.062Z,31232
2017-07-03T07:03:44.974Z,21792
2017-07-03T07:04:54.880Z,14056
2017-07-03T07:06:04.800Z,10224
2017-07-03T07:07:15.079Z,9680
2017-07-03T07:08:24.980Z,15700
2017-07-03T07:09:34.892Z,28512
2017-07-03T07:10:44.798Z,27360
2017-07-03T07:11:54.113Z,21952
2017-07-03T07:13:04.442Z,17076
2017-07-03T07:14:14.050Z,13852
2017-07-03T07:15:23.681Z,16828
2017-07-03T07:16:33.594Z,22848
2017-07-03T07:17:43.545Z,30880
2017-07-03T07:18:53.301Z,34080
2017-07-03T07:20:03.216Z,41216
2017-07-03T07:21:13.131Z,44352
2017-07-03T07:22:22.126Z,36448
2017-07-03T07:23:32.353Z,36256
2017-07-03T07:24:42.016Z,44736
2017-07-03T07:25:52.231Z,53152
2017-07-03T07:27:02.144Z,52256
2017-07-03T07:28:12.058Z,51744
2017-07-03T07:29:22.274Z,53920
2017-07-03T07:30:32.646Z,52416
2017-07-03T07:31:42.881Z,51456
2017-07-03T07:32:52.508Z,55008
2017-07-03T07:34:02.132Z,56416
2017-07-03T07:35:12.348Z,58112
2017-07-03T07:36:22.116Z,57088
2017-07-03T07:37:32.347Z,54528
2017-07-03T07:38:42.267Z,53696
2017-07-03T07:39:52.488Z,54880
2017-07-03T07:41:02.712Z,58336
2017-07-03T07:42:12.776Z,55904
2017-07-03T07:43:22.379Z,56736
2017-07-03T07:44:32.313Z,61152
2017-07-03T07:45:42.626Z,59168
2017-07-03T07:46:51.933Z,53696
2017-07-03T07:48:01.599Z,53984
2017-07-03T07:49:11.514Z,57376
2017-07-03T07:50:21.131Z,58144
2017-07-03T07:51:31.037Z,62368
2017-07-03T07:52:40.970Z,58816
2017-07-03T07:53:51.031Z,62976
2017-07-03T07:55:00.947Z,66112
2017-07-03T07:56:11.173Z,63968
2017-07-03T07:57:21.087Z,60320
2017-07-03T07:58:31.308Z,57216
2017-07-03T07:59:41.367Z,62176
2017-07-03T08:00:51.300Z,62560
2017-07-03T08:02:01.208Z,63872
2017-07-03T08:03:11.444Z,61504
2017-07-03T08:04:21.050Z,62208
2017-07-03T08:05:30.962Z,62976
2017-07-03T08:06:40.895Z,64736
2017-07-03T08:07:50.526Z,67328
2017-07-03T08:09:00.144Z,63072
2017-07-03T08:10:09.751Z,60352
2017-07-03T08:11:19.377Z,65984
2017-07-03T08:12:29.596Z,68160
2017-07-03T08:13:39.222Z,8396
2017-07-03T08:14:49.141Z,57664
2017-07-03T08:15:59.061Z,54688
2017-07-03T08:17:09.111Z,59008
2017-07-03T08:18:19.027Z,67200
2017-07-03T08:19:28.942Z,64256
2017-07-03T08:20:38.255Z,64352
2017-07-03T08:21:48.166Z,67680
2017-07-03T08:22:57.827Z,68032
2017-07-03T08:24:07.845Z,64928
2017-07-03T08:25:17.753Z,29376
2017-07-03T08:26:27.062Z,66944
2017-07-03T08:27:36.986Z,64288
2017-07-03T08:28:46.649Z,65696
2017-07-03T08:29:55.956Z,66720
2017-07-03T08:31:06.179Z,62144
2017-07-03T08:32:15.780Z,62080
2017-07-03T08:33:25.092Z,64672
2017-07-03T08:34:35.062Z,66080
2017-07-03T08:35:45.288Z,67456
2017-07-03T08:36:55.209Z,65376
2017-07-03T08:38:05.198Z,63168
2017-07-03T08:39:15.142Z,64800
2017-07-03T08:40:25.076Z,66240
2017-07-03T08:41:35.291Z,62816
2017-07-03T08:42:45.201Z,61920
2017-07-03T08:43:55.421Z,66976
2017-07-03T08:45:05.331Z,68896
2017-07-03T08:46:15.552Z,62432
2017-07-03T08:47:25.170Z,50464
2017-07-03T08:48:35.083Z,27616
2017-07-03T08:49:45.312Z,7344
2017-07-03T08:50:55.526Z,5612
2017-07-03T08:52:06.043Z,4864
2017-07-03T08:53:16.281Z,4388
2017-07-03T08:54:26.516Z,4024
2017-07-03T08:55:36.750Z,3724
2017-07-03T08:56:46.352Z,3544
2017-07-03T08:57:56.369Z,3296
2017-07-03T08:59:06.289Z,2812
2017-07-03T09:00:16.522Z,2240
2017-07-03T09:01:26.438Z,2008
2017-07-03T09:02:36.049Z,1928
2017-07-03T09:03:45.348Z,1864
2017-07-03T09:04:55.266Z,1784
2017-07-03T09:06:05.172Z,1708
2017-07-03T09:07:15.397Z,1628
2017-07-03T09:08:25.299Z,1556
2017-07-03T09:09:35.205Z,1504
2017-07-03T09:10:45.432Z,1468
2017-07-03T09:11:55.359Z,1448
2017-07-03T09:13:05.270Z,1420
2017-07-03T09:14:14.898Z,1412
2017-07-03T09:15:24.822Z,1396
2017-07-03T09:16:35.070Z,1408
2017-07-03T09:17:44.987Z,1412
2017-07-03T09:18:54.293Z,1420
2017-07-03T09:20:04.199Z,1412
2017-07-03T09:21:13.955Z,1372
2017-07-03T09:22:24.159Z,1320
2017-07-03T09:23:34.072Z,1272
2017-07-03T09:24:43.990Z,1224
2017-07-03T09:25:54.239Z,1204
2017-07-03T09:27:03.640Z,1188
2017-07-03T09:28:13.860Z,1192
2017-07-03T09:29:24.097Z,1196
2017-07-03T09:30:34.068Z,1192
2017-07-03T09:31:43.383Z,1212
2017-07-03T09:32:53.132Z,1240
2017-07-03T09:34:03.355Z,1256
2017-07-03T09:35:12.965Z,1280
2017-07-03T09:36:22.598Z,1292
2017-07-03T09:37:32.535Z,1276
2017-07-03T09:38:42.815Z,1252
2017-07-03T09:39:53.040Z,1244
2017-07-03T09:41:02.952Z,1244
2017-07-03T09:42:12.560Z,1212
2017-07-03T09:43:22.490Z,1204
2017-07-03T09:44:31.278Z,1228
2017-07-03T09:45:40.886Z,1256
2017-07-03T09:46:51.098Z,1292
2017-07-03T09:48:01.028Z,1320
2017-07-03T09:49:11.241Z,1264
2017-07-03T09:50:21.620Z,1236
2017-07-03T09:51:31.535Z,1212
2017-07-03T09:52:40.834Z,1196
2017-07-03T09:53:50.770Z,1160
2017-07-03T09:55:00.989Z,1136
2017-07-03T09:56:10.598Z,1120
2017-07-03T09:57:20.512Z,1096
2017-07-03T09:58:30.746Z,1092
2017-07-03T09:59:40.045Z,1100
2017-07-03T10:00:50.260Z,1116
2017-07-03T10:02:00.482Z,1116
2017-07-03T10:03:10.699Z,1120
2017-07-03T10:04:20.667Z,1136
2017-07-03T10:05:30.585Z,1124
2017-07-03T10:06:40.199Z,1164
2017-07-03T10:07:50.569Z,1148
2017-07-03T10:09:00.804Z,1108
2017-07-03T10:10:11.032Z,1084
2017-07-03T10:11:20.952Z,1056
2017-07-03T10:12:30.559Z,1036
2017-07-03T10:13:40.155Z,1032
2017-07-03T10:14:50.378Z,1056
2017-07-03T10:15:59.979Z,1012
2017-07-03T10:17:10.196Z,1032
2017-07-03T10:18:19.808Z,1036
2017-07-03T10:19:30.027Z,1108
2017-07-03T10:20:39.939Z,1136
2017-07-03T10:21:49.847Z,1120
2017-07-03T10:22:59.440Z,1092
2017-07-03T10:24:09.657Z,1076
2017-07-03T10:25:19.932Z,1156
2017-07-03T10:26:29.534Z,1292
2017-07-03T10:27:39.149Z,1268
2017-07-03T10:28:48.449Z,1308
2017-07-03T10:29:58.672Z,1296
2017-07-03T10:31:08.638Z,1288
2017-07-03T10:32:18.861Z,1268
2017-07-03T10:33:28.779Z,1216
2017-07-03T10:34:38.995Z,1264
2017-07-03T10:35:48.600Z,1280
2017-07-03T10:36:58.963Z,1204
2017-07-03T10:38:09.192Z,1292
2017-07-03T10:39:18.489Z,1484
2017-07-03T10:40:28.709Z,1572
2017-07-03T10:41:38.928Z,1464
2017-07-03T10:42:48.847Z,1364
2017-07-03T10:43:58.479Z,1392
2017-07-03T10:45:08.706Z,1724
2017-07-03T10:46:18.615Z,1892
2017-07-03T10:47:28.829Z,1688
2017-07-03T10:48:39.196Z,1612
2017-07-03T10:49:48.497Z,1764
2017-07-03T10:50:58.403Z,1716
2017-07-03T10:52:08.012Z,1588
2017-07-03T10:53:17.924Z,1420
2017-07-03T10:54:28.286Z,1840
2017-07-03T10:55:38.194Z,2264
2017-07-03T10:56:47.511Z,2232
2017-07-03T10:57:57.120Z,2024
2017-07-03T10:59:07.039Z,1652
2017-07-03T11:00:17.290Z,2020
2017-07-03T11:01:26.909Z,1548
2017-07-03T11:02:37.146Z,1388
2017-07-03T11:03:46.800Z,1324
2017-07-03T11:04:56.716Z,1676
2017-07-03T11:06:06.380Z,1860
2017-07-03T11:07:15.694Z,1788
2017-07-03T11:08:25.909Z,1712
2017-07-03T11:09:35.196Z,1968
2017-07-03T11:10:44.491Z,2324
2017-07-03T11:11:54.778Z,1904
2017-07-03T11:13:04.724Z,1572
2017-07-03T11:14:14.334Z,1280
2017-07-03T11:15:24.252Z,1260
2017-07-03T11:16:33.871Z,1288
2017-07-03T11:17:43.627Z,1396
2017-07-03T11:18:53.555Z,1404
2017-07-03T11:20:03.781Z,1228
2017-07-03T11:21:14.003Z,1440
2017-07-03T11:22:23.606Z,1316
2017-07-03T11:23:33.700Z,1196
2017-07-03T11:24:43.025Z,1100
2017-07-03T11:25:52.979Z,1068
2017-07-03T11:27:02.911Z,1040
2017-07-03T11:28:12.519Z,1172
2017-07-03T11:29:22.779Z,1432
2017-07-03T11:30:32.370Z,1252
2017-07-03T11:31:42.278Z,1084
2017-07-03T11:32:52.179Z,912
2017-07-03T11:34:02.457Z,1024
2017-07-03T11:35:12.222Z,876
2017-07-03T11:36:22.142Z,756
2017-07-03T11:37:32.054Z,792
2017-07-03T11:38:41.685Z,976
2017-07-03T11:39:51.314Z,1348
2017-07-03T11:41:01.382Z,1556
2017-07-03T11:42:10.687Z,1480
2017-07-03T11:43:20.660Z,1188
2017-07-03T11:44:29.962Z,852
2017-07-03T11:45:40.925Z,812
2017-07-03T11:46:50.831Z,904
2017-07-03T11:48:00.799Z,1344
2017-07-03T11:49:11.012Z,1524
2017-07-03T11:50:20.633Z,1628
2017-07-03T11:51:30.911Z,1428
2017-07-03T11:52:40.651Z,1208
2017-07-03T11:53:49.970Z,1180
2017-07-03T11:54:59.571Z,1264
2017-07-03T11:56:09.168Z,1392
2017-07-03T11:57:19.094Z,1432
2017-07-03T11:58:29.161Z,1112
2017-07-03T11:59:38.160Z,804
2017-07-03T12:00:48.385Z,744
2017-07-03T12:01:57.386Z,868
2017-07-03T12:03:07.360Z,1180
2017-07-03T12:04:17.146Z,1512
2017-07-03T12:05:27.073Z,1848
2017-07-03T12:06:36.684Z,1932
2017-07-03T12:07:46.297Z,1648
2017-07-03T12:08:56.271Z,1476
2017-07-03T12:10:06.632Z,1324
2017-07-03T12:11:16.857Z,1392
2017-07-03T12:12:27.087Z,1476
2017-07-03T12:13:36.694Z,1332
2017-07-03T12:14:46.906Z,1220
2017-07-03T12:15:57.287Z,1128
2017-07-03T12:17:07.207Z,1076
2017-07-03T12:18:17.422Z,1000
2017-07-03T12:19:27.338Z,1196
2017-07-03T12:20:37.269Z,1444
2017-07-03T12:21:46.664Z,1308
2017-07-03T12:22:57.000Z,1540
2017-07-03T12:24:06.970Z,1716
2017-07-03T12:25:17.200Z,1892
2017-07-03T12:26:27.110Z,1896
2017-07-03T12:27:37.075Z,1956
2017-07-03T12:28:47.300Z,1960
2017-07-03T12:29:56.912Z,2068
2017-07-03T12:31:07.120Z,2116
2017-07-03T12:32:16.719Z,2156
2017-07-03T12:33:26.422Z,2276
2017-07-03T12:34:36.335Z,2436
2017-07-03T12:35:46.260Z,2600
2017-07-03T12:36:56.170Z,2684
2017-07-03T12:38:05.489Z,2740
2017-07-03T12:39:15.556Z,2772
2017-07-03T12:40:25.790Z,2752
2017-07-03T12:41:35.411Z,2696
2017-07-03T12:42:45.326Z,2596
2017-07-03T12:43:55.237Z,2480
2017-07-03T12:45:04.556Z,2356
2017-07-03T12:46:14.789Z,2240
2017-07-03T12:47:24.741Z,2284
2017-07-03T12:48:34.965Z,2432
2017-07-03T12:49:44.884Z,2524
2017-07-03T12:50:54.954Z,2592
2017-07-03T12:52:04.864Z,2704
2017-07-03T12:53:14.782Z,2748
2017-07-03T12:54:24.387Z,2736
2017-07-03T12:55:33.994Z,2620
2017-07-03T12:56:43.894Z,2348
2017-07-03T12:57:53.242Z,2108
2017-07-03T12:59:03.471Z,1972
2017-07-03T13:00:13.109Z,1912
2017-07-03T13:01:23.021Z,1924
2017-07-03T13:02:33.224Z,2028
2017-07-03T13:03:43.137Z,1968
2017-07-03T13:04:53.053Z,1752
2017-07-03T13:06:02.959Z,1696
2017-07-03T13:07:12.891Z,1704
2017-07-03T13:08:23.315Z,1948
2017-07-03T13:09:33.277Z,2080
2017-07-03T13:10:42.573Z,1728
2017-07-03T13:11:52.186Z,1436
2017-07-03T13:13:02.109Z,1416
2017-07-03T13:14:11.832Z,1448
2017-07-03T13:15:21.503Z,1556
2017-07-03T13:16:31.418Z,1568
2017-07-03T13:17:41.640Z,1632
2017-07-03T13:18:51.864Z,1876
2017-07-03T13:20:01.971Z,1948
2017-07-03T13:21:11.911Z,1896
2017-07-03T13:22:21.818Z,1780
2017-07-03T13:23:32.043Z,1524
2017-07-03T13:24:42.282Z,1436
2017-07-03T13:25:52.205Z,1388
2017-07-03T13:27:02.108Z,1264
2017-07-03T13:28:12.016Z,1216
2017-07-03T13:29:22.241Z,1204
2017-07-03T13:30:32.163Z,1048
2017-07-03T13:31:42.703Z,968
2017-07-03T13:32:52.926Z,1024
2017-07-03T13:34:03.152Z,1148
2017-07-03T13:35:13.374Z,1272
2017-07-03T13:36:23.339Z,1484
2017-07-03T13:37:33.354Z,1596
2017-07-03T13:38:42.978Z,1644
2017-07-03T13:39:53.200Z,1704
2017-07-03T13:41:03.123Z,1708
2017-07-03T13:42:13.029Z,1828
2017-07-03T13:43:22.481Z,1740
2017-07-03T13:44:32.408Z,1716
2017-07-03T13:45:42.655Z,1616
2017-07-03T13:46:52.283Z,1624
2017-07-03T13:48:01.886Z,1368
2017-07-03T13:49:12.116Z,1340
2017-07-03T13:50:21.719Z,1236
2017-07-03T13:51:31.631Z,1312
2017-07-03T13:52:41.541Z,1516
2017-07-03T13:53:51.458Z,1752
2017-07-03T13:55:01.530Z,1796
2017-07-03T13:56:11.446Z,1836
2017-07-03T13:57:21.375Z,1924
2017-07-03T13:58:31.387Z,2056
2017-07-03T13:59:40.991Z,2164
2017-07-03T14:00:50.304Z,2164
2017-07-03T14:02:00.213Z,1976
2017-07-03T14:03:09.816Z,1944
2017-07-03T14:04:19.752Z,1968
2017-07-03T14:05:29.979Z,1844
2017-07-03T14:06:40.212Z,1672
2017-07-03T14:07:50.451Z,1680
2017-07-03T14:09:00.681Z,1724
2017-07-03T14:10:10.603Z,1660
2017-07-03T14:11:20.532Z,1500
2017-07-03T14:12:30.754Z,1612
2017-07-03T14:13:41.006Z,1748
2017-07-03T14:14:50.959Z,1892
2017-07-03T14:16:00.866Z,1892
2017-07-03T14:17:11.096Z,1812
2017-07-03T14:18:21.003Z,1728
2017-07-03T14:19:30.906Z,1728
2017-07-03T14:20:41.140Z,1772
2017-07-03T14:21:51.061Z,1764
2017-07-03T14:23:00.656Z,1852
2017-07-03T14:24:10.869Z,1780
2017-07-03T14:25:19.855Z,1780
2017-07-03T14:26:30.067Z,1856
2017-07-03T14:27:40.295Z,1968
2017-07-03T14:28:50.224Z,2072
2017-07-03T14:30:00.157Z,2052
2017-07-03T14:31:10.068Z,1944
2017-07-03T14:32:20.333Z,1872
2017-07-03T14:33:29.652Z,1856
2017-07-03T14:34:39.863Z,1760
2017-07-03T14:35:49.784Z,1720
2017-07-03T14:36:59.400Z,1804
2017-07-03T14:38:09.011Z,1928
2017-07-03T14:39:18.315Z,1672
2017-07-03T14:40:27.007Z,1656
2017-07-03T14:41:36.469Z,1732
2017-07-03T14:42:46.392Z,1956
2017-07-03T14:43:56.007Z,2212
2017-07-03T14:45:06.232Z,2136
2017-07-03T14:46:16.462Z,2180
2017-07-03T14:47:26.726Z,2116
2017-07-03T14:48:36.642Z,2228
2017-07-03T14:49:46.570Z,1788
2017-07-03T14:50:56.483Z,1648
2017-07-03T14:52:06.712Z,1448
2017-07-03T14:53:16.983Z,1428
2017-07-03T14:54:27.201Z,1508
2017-07-03T14:55:37.425Z,1556
2017-07-03T14:56:47.341Z,1540
2017-07-03T14:57:57.567Z,1516
2017-07-03T14:59:07.502Z,1560
2017-07-03T15:00:17.431Z,1584
2017-07-03T15:01:27.665Z,1512
2017-07-03T15:02:37.292Z,1420
2017-07-03T15:03:46.904Z,1348
2017-07-03T15:04:56.981Z,1492
2017-07-03T15:06:06.588Z,1636
2017-07-03T15:07:16.810Z,1656
2017-07-03T15:08:26.104Z,1712
2017-07-03T15:09:35.081Z,1692
2017-07-03T15:10:44.214Z,1700
2017-07-03T15:11:53.174Z,1704
2017-07-03T15:13:02.150Z,1720
2017-07-03T15:14:11.754Z,1692
2017-07-03T15:15:20.730Z,1668
2017-07-03T15:16:30.317Z,1640
2017-07-03T15:17:39.597Z,1560
2017-07-03T15:18:48.568Z,1540
2017-07-03T15:19:57.840Z,1592
2017-07-03T15:21:07.107Z,1592
2017-07-03T15:22:16.532Z,1648
2017-07-03T15:23:25.493Z,1768
2017-07-03T15:24:34.462Z,1756
2017-07-03T15:25:43.433Z,1808
2017-07-03T15:26:52.745Z,1808
2017-07-03T15:28:01.754Z,1792
2017-07-03T15:29:11.028Z,1800
2017-07-03T15:30:20.312Z,1736
2017-07-03T15:31:29.278Z,1608
2017-07-03T15:32:38.564Z,1452
2017-07-03T15:33:48.272Z,1364
2017-07-03T15:34:57.886Z,1380
2017-07-03T15:36:06.865Z,1440
2017-07-03T15:37:16.474Z,1400
2017-07-03T15:38:25.760Z,1288
2017-07-03T15:39:35.043Z,1080
2017-07-03T15:40:44.641Z,980
2017-07-03T15:41:53.363Z,1044
2017-07-03T15:43:02.421Z,1048
2017-07-03T15:44:11.058Z,1040
2017-07-03T15:45:19.762Z,1024
2017-07-03T15:46:29.049Z,1088
2017-07-03T15:47:38.010Z,1080
2017-07-03T15:48:47.599Z,1020
2017-07-03T15:49:56.309Z,1112
2017-07-03T15:51:05.308Z,1220
2017-07-03T15:52:14.598Z,1336